Accueil
METAR-TAF:

METAR-TAF

Aéroports :

Base aérienne de Kleine-Brogel

Peer, Belgique

latitude: 51-10N, longitude: 005-28E, altitude: 55 m

Observation

Le bulletin a été fait il y a 1 heure et 5 minutes, à 21:25 UTC
Vent 3 kt de nord/nord-ouest
Température 2°C
Humidité 100%
Pression 1023 hPa
Visibilité 10 km ou plus
Quelques nuages à une hauteur de 4000 ft
Nuages épars à une hauteur de 7000 ft

METAR: EBBL 222125Z 33003KT 9999 FEW040 SCT070 02/02 Q1023 BLU BLU

Heure: 00:30 (22:30 UTC)

Prévision

Le bulletin a été fait il y a 6 heures et 49 minutes, à 15:41 UTC
Prévision valable du 22 à 19 UTC au 23 à 07 UTC
Vent 4 kt de nord
Visibilité 10 km ou plus
Nuages épars à une hauteur de 3000 ft

TAF: EBBL 221541Z 2219/2307 01004KT 9999 SCT030

Observations et prévisions météorologiques de plus de 4000 aéroports (messages METAR et TAF).

Les stations disponibles sont représentées par des disques jaunes et rouges sur la carte.

Passer la souris dessus pour voir le nom de la station.

Cliquer dessus pour voir les observations et prévisions météorologiques.

Pour changer de carte: cliquez sur les boutons verts avec une croix noire pour zoomer, sur le bouton vert avec un tiret pour effectuer un zoom arrière, ou sur les flèches vertes pour les cartes adjacentes.


METAR-TAF: